createdAt,value
2017-09-08T00:00:34.240Z,13.10
2017-09-08T00:03:01.867Z,13.00
2017-09-08T00:05:29.496Z,12.90
2017-09-08T00:07:57.160Z,13.00
2017-09-08T00:10:24.776Z,13.00
2017-09-08T00:12:52.408Z,12.90
2017-09-08T00:15:20.166Z,13.00
2017-09-08T00:17:47.828Z,13.10
2017-09-08T00:20:15.456Z,13.10
2017-09-08T00:22:43.116Z,13.20
2017-09-08T00:25:10.735Z,13.30
2017-09-08T00:27:38.424Z,13.30
2017-09-08T00:30:06.091Z,13.50
2017-09-08T00:32:33.734Z,13.60
2017-09-08T00:37:35.400Z,13.60
2017-09-08T00:40:03.031Z,13.60
2017-09-08T00:42:30.655Z,13.60
2017-09-08T00:44:58.328Z,13.60
2017-09-08T00:47:26.160Z,13.70
2017-09-08T00:49:53.810Z,13.70
2017-09-08T00:52:21.458Z,13.70
2017-09-08T00:54:49.084Z,13.70
2017-09-08T00:57:16.704Z,13.60
2017-09-08T00:59:44.381Z,13.60
2017-09-08T01:02:12.001Z,13.60
2017-09-08T01:04:39.620Z,13.70
2017-09-08T01:07:08.038Z,13.80
2017-09-08T01:09:35.662Z,13.70
2017-09-08T01:12:03.289Z,13.70
2017-09-08T01:14:30.954Z,13.70
2017-09-08T01:16:58.575Z,13.70
2017-09-08T01:19:26.201Z,13.60
2017-09-08T01:21:53.870Z,13.60
2017-09-08T01:24:21.498Z,13.60
2017-09-08T01:26:49.118Z,13.40
2017-09-08T01:29:16.779Z,13.40
2017-09-08T01:31:44.395Z,13.30
2017-09-08T01:34:12.015Z,13.20
2017-09-08T01:36:39.678Z,13.20
2017-09-08T01:39:07.307Z,13.20
2017-09-08T01:41:35.026Z,13.30
2017-09-08T01:44:02.688Z,13.20
2017-09-08T01:46:30.317Z,13.20
2017-09-08T01:48:57.939Z,13.30
2017-09-08T01:51:25.586Z,13.30
2017-09-08T01:53:53.212Z,13.30
2017-09-08T01:56:20.834Z,13.20
2017-09-08T01:58:48.495Z,13.20
2017-09-08T02:01:16.116Z,13.20
2017-09-08T02:03:43.731Z,13.10
2017-09-08T02:06:11.386Z,13.10
2017-09-08T02:08:39.003Z,13.20
2017-09-08T02:11:06.623Z,13.10
2017-09-08T02:13:34.285Z,12.90
2017-09-08T02:16:01.911Z,12.90
2017-09-08T02:18:29.533Z,12.80
2017-09-08T02:20:57.229Z,12.90
2017-09-08T02:23:24.866Z,13.00
2017-09-08T02:25:52.495Z,13.10
2017-09-08T02:28:20.168Z,13.20
2017-09-08T02:30:47.796Z,13.20
2017-09-08T02:33:15.428Z,13.30
2017-09-08T02:35:43.091Z,13.30
2017-09-08T02:38:10.711Z,13.20
2017-09-08T02:40:38.343Z,13.30
2017-09-08T02:43:06.003Z,13.40
2017-09-08T02:45:33.632Z,13.40
2017-09-08T02:48:01.265Z,13.50
2017-09-08T02:50:28.920Z,13.40
2017-09-08T02:52:56.544Z,13.40
2017-09-08T02:55:24.229Z,13.40
2017-09-08T02:57:51.898Z,13.50
2017-09-08T03:00:19.516Z,13.40
2017-09-08T03:02:47.140Z,13.40
2017-09-08T03:05:14.804Z,13.30
2017-09-08T03:07:42.432Z,13.30
2017-09-08T03:10:10.054Z,13.30
2017-09-08T03:12:37.711Z,13.30
2017-09-08T03:15:05.339Z,13.40
2017-09-08T03:17:32.968Z,13.40
2017-09-08T03:20:00.632Z,13.40
2017-09-08T03:22:28.258Z,13.40
2017-09-08T03:24:55.877Z,13.40
2017-09-08T03:27:23.534Z,13.40
2017-09-08T03:29:51.155Z,13.40
2017-09-08T03:32:18.788Z,13.40
2017-09-08T03:34:46.451Z,13.40
2017-09-08T03:37:14.087Z,13.50
2017-09-08T03:39:41.707Z,13.50
2017-09-08T03:42:09.363Z,13.40
2017-09-08T03:44:36.983Z,13.40
2017-09-08T03:47:04.615Z,13.40
2017-09-08T03:49:32.284Z,13.50
2017-09-08T03:51:59.907Z,13.40
2017-09-08T03:54:27.531Z,13.40
2017-09-08T03:56:55.195Z,13.40
2017-09-08T03:59:22.815Z,13.50
2017-09-08T04:01:50.436Z,13.50
2017-09-08T04:04:18.095Z,13.50
2017-09-08T04:06:45.728Z,13.50
2017-09-08T04:09:13.356Z,13.60
2017-09-08T04:11:41.015Z,13.50
2017-09-08T04:14:08.643Z,13.50
2017-09-08T04:16:36.282Z,13.60
2017-09-08T04:19:03.936Z,13.60
2017-09-08T04:21:31.562Z,13.60
2017-09-08T04:23:59.192Z,13.60
2017-09-08T04:26:26.852Z,13.60
2017-09-08T04:28:54.480Z,13.60
2017-09-08T04:31:22.101Z,13.60
2017-09-08T04:33:49.772Z,13.50
2017-09-08T04:36:17.407Z,13.50
2017-09-08T04:38:45.032Z,13.50
2017-09-08T04:41:12.696Z,13.50
2017-09-08T04:43:40.332Z,13.50
2017-09-08T04:46:07.958Z,13.50
2017-09-08T04:48:35.631Z,13.50
2017-09-08T04:51:03.260Z,13.60
2017-09-08T04:53:30.883Z,13.50
2017-09-08T04:55:58.539Z,13.60
2017-09-08T04:58:26.166Z,13.60
2017-09-08T05:00:53.782Z,13.60
2017-09-08T05:03:21.440Z,13.70
2017-09-08T05:05:50.098Z,13.80
2017-09-08T05:08:17.726Z,13.70
2017-09-08T05:10:45.402Z,13.80
2017-09-08T05:13:13.085Z,13.80
2017-09-08T05:15:40.716Z,13.80
2017-09-08T05:18:08.375Z,13.80
2017-09-08T05:20:36.004Z,13.80
2017-09-08T05:23:03.627Z,13.70
2017-09-08T05:25:31.291Z,13.80
2017-09-08T05:27:59.486Z,13.80
2017-09-08T05:30:28.034Z,13.90
2017-09-08T05:32:55.992Z,13.80
2017-09-08T05:35:23.622Z,13.90
2017-09-08T05:37:51.240Z,13.90
2017-09-08T05:40:18.902Z,13.90
2017-09-08T05:42:46.529Z,13.90
2017-09-08T05:45:14.160Z,14.00
2017-09-08T05:47:41.825Z,14.10
2017-09-08T05:50:09.485Z,14.20
2017-09-08T05:52:37.115Z,14.10
2017-09-08T05:55:04.776Z,14.20
2017-09-08T05:57:32.401Z,14.20
2017-09-08T06:00:00.028Z,14.20
2017-09-08T06:02:27.692Z,14.20
2017-09-08T06:04:55.321Z,14.30
2017-09-08T06:07:22.939Z,14.20
2017-09-08T06:09:50.595Z,14.30
2017-09-08T06:12:18.216Z,14.30
2017-09-08T06:14:45.840Z,14.40
2017-09-08T06:17:13.505Z,14.40
2017-09-08T06:19:41.133Z,14.60
2017-09-08T06:22:08.761Z,14.70
2017-09-08T06:24:36.428Z,14.70
2017-09-08T06:27:04.055Z,14.70
2017-09-08T06:29:31.687Z,14.70
2017-09-08T06:31:59.349Z,14.70
2017-09-08T06:34:27.003Z,14.70
2017-09-08T06:36:54.631Z,14.60
2017-09-08T06:39:22.295Z,14.70
2017-09-08T06:41:49.922Z,14.80
2017-09-08T06:44:17.587Z,14.80
2017-09-08T06:46:45.252Z,14.90
2017-09-08T06:49:12.879Z,14.90
2017-09-08T06:51:40.501Z,15.00
2017-09-08T06:54:08.155Z,15.10
2017-09-08T06:56:35.803Z,15.20
2017-09-08T06:59:03.423Z,15.30
2017-09-08T07:01:31.092Z,15.40
2017-09-08T07:03:58.732Z,15.50
2017-09-08T07:06:26.351Z,15.50
2017-09-08T07:08:54.020Z,15.50
2017-09-08T07:11:21.660Z,15.60
2017-09-08T07:13:49.285Z,15.60
2017-09-08T07:16:16.942Z,15.60
2017-09-08T07:18:44.571Z,15.60
2017-09-08T07:21:12.207Z,15.60
2017-09-08T07:23:40.631Z,15.60
2017-09-08T07:26:08.249Z,15.50
2017-09-08T07:28:35.882Z,15.60
2017-09-08T07:31:03.535Z,15.60
2017-09-08T07:33:31.165Z,15.70
2017-09-08T07:35:58.794Z,15.70
2017-09-08T07:38:26.470Z,15.70
2017-09-08T07:40:54.099Z,15.80
2017-09-08T07:43:21.724Z,15.90
2017-09-08T07:45:49.399Z,16.10
2017-09-08T07:48:17.028Z,16.30
2017-09-08T07:50:44.666Z,16.30
2017-09-08T07:53:12.327Z,16.40
2017-09-08T07:55:39.951Z,16.60
2017-09-08T07:58:07.609Z,16.70
2017-09-08T08:00:35.235Z,16.90
2017-09-08T08:03:02.873Z,17.00
2017-09-08T08:05:30.529Z,17.00
2017-09-08T08:07:58.154Z,17.20
2017-09-08T08:10:25.811Z,17.30
2017-09-08T08:12:53.424Z,17.50
2017-09-08T08:15:21.046Z,17.60
2017-09-08T08:17:48.704Z,17.60
2017-09-08T08:20:16.335Z,17.70
2017-09-08T08:22:43.984Z,18.00
2017-09-08T08:25:11.583Z,18.30
2017-09-08T08:27:39.193Z,18.30
2017-09-08T08:30:06.825Z,18.40
2017-09-08T08:32:34.439Z,18.60
2017-09-08T08:35:02.076Z,19.00
2017-09-08T08:37:29.681Z,19.40
2017-09-08T08:39:58.056Z,19.10
2017-09-08T08:42:25.688Z,19.10
2017-09-08T08:44:53.286Z,19.20
2017-09-08T08:47:20.933Z,19.70
2017-09-08T08:49:48.540Z,20.20
2017-09-08T08:52:16.903Z,20.20
2017-09-08T08:54:44.538Z,20.20
2017-09-08T08:57:12.140Z,20.40
2017-09-08T08:59:39.779Z,20.20
2017-09-08T09:02:07.377Z,20.00
2017-09-08T09:04:34.991Z,20.40
2017-09-08T09:07:02.615Z,20.30
2017-09-08T09:09:30.215Z,20.00
2017-09-08T09:11:58.175Z,19.60
2017-09-08T09:14:25.819Z,19.40
2017-09-08T09:16:53.426Z,19.30
2017-09-08T09:19:26.696Z,19.40
2017-09-08T09:21:54.447Z,19.30
2017-09-08T09:24:22.084Z,19.40
2017-09-08T09:26:49.689Z,19.10
2017-09-08T09:29:17.303Z,18.90
2017-09-08T09:31:44.937Z,18.60
2017-09-08T09:34:12.547Z,18.50
2017-09-08T09:36:40.208Z,18.30
2017-09-08T09:39:07.824Z,18.40
2017-09-08T09:41:35.471Z,18.70
2017-09-08T09:44:03.112Z,18.70
2017-09-08T09:46:30.790Z,18.60
2017-09-08T09:48:58.450Z,18.60
2017-09-08T09:51:26.935Z,18.60
2017-09-08T09:53:54.555Z,18.70
2017-09-08T09:56:22.221Z,18.70
2017-09-08T09:58:50.178Z,18.70
2017-09-08T10:01:17.856Z,18.80
2017-09-08T10:03:46.517Z,18.80
2017-09-08T10:06:14.718Z,18.80
2017-09-08T10:08:42.759Z,18.80
2017-09-08T10:11:10.372Z,18.80
2017-09-08T10:13:38.032Z,18.90
2017-09-08T10:16:05.664Z,18.90
2017-09-08T10:18:33.280Z,18.90
2017-09-08T10:21:00.919Z,19.00
2017-09-08T10:23:28.565Z,19.00
2017-09-08T10:25:56.168Z,19.20
2017-09-08T10:28:23.820Z,19.50
2017-09-08T10:30:51.419Z,19.70
2017-09-08T10:33:19.035Z,19.90
2017-09-08T10:35:46.672Z,20.10
2017-09-08T10:38:15.188Z,20.00
2017-09-08T10:40:42.920Z,20.00
2017-09-08T10:43:10.640Z,19.80
2017-09-08T10:45:38.275Z,19.70
2017-09-08T10:48:07.100Z,19.50
2017-09-08T10:50:35.289Z,19.40
2017-09-08T10:53:02.923Z,19.40
2017-09-08T10:55:30.781Z,19.40
2017-09-08T10:57:58.439Z,19.60
2017-09-08T11:00:26.172Z,19.60
2017-09-08T11:02:53.793Z,19.40
2017-09-08T11:05:21.447Z,19.20
2017-09-08T11:07:49.165Z,19.20
2017-09-08T11:10:16.962Z,19.30
2017-09-08T11:12:44.747Z,19.30
2017-09-08T11:15:12.487Z,19.30
2017-09-08T11:17:40.288Z,19.20
2017-09-08T11:20:07.935Z,19.10
2017-09-08T11:22:35.535Z,19.20
2017-09-08T11:25:03.327Z,19.20
2017-09-08T11:27:31.262Z,19.20
2017-09-08T11:29:58.982Z,19.20
2017-09-08T11:32:32.233Z,19.20
2017-09-08T11:35:05.745Z,19.20
2017-09-08T11:37:33.796Z,19.20
2017-09-08T11:40:01.445Z,19.20
2017-09-08T11:42:29.647Z,19.30
2017-09-08T11:44:57.287Z,19.30
2017-09-08T11:47:24.950Z,19.30
2017-09-08T11:49:52.589Z,19.20
2017-09-08T11:52:20.247Z,19.30
2017-09-08T11:54:47.879Z,19.30
2017-09-08T11:57:15.588Z,19.40
2017-09-08T11:59:43.220Z,19.40
2017-09-08T12:02:11.404Z,19.50
2017-09-08T12:04:39.098Z,19.50
2017-09-08T12:07:06.716Z,19.70
2017-09-08T12:09:34.339Z,19.90
2017-09-08T12:12:02.005Z,20.10
2017-09-08T12:14:29.639Z,20.20
2017-09-08T12:16:59.644Z,20.10
2017-09-08T12:19:27.267Z,20.00
2017-09-08T12:21:54.976Z,20.00
2017-09-08T12:24:22.655Z,20.10
2017-09-08T12:26:50.284Z,20.20
2017-09-08T12:29:18.352Z,20.20
2017-09-08T12:31:46.076Z,20.30
2017-09-08T12:34:13.707Z,20.30
2017-09-08T12:36:41.336Z,20.50
2017-09-08T12:39:08.950Z,20.50
2017-09-08T12:41:36.621Z,20.40
2017-09-08T12:44:04.253Z,20.40
2017-09-08T12:46:31.870Z,20.40
2017-09-08T12:48:59.491Z,20.40
2017-09-08T12:51:27.144Z,20.30
2017-09-08T12:53:55.556Z,20.20
2017-09-08T12:56:23.689Z,20.10
2017-09-08T12:58:51.297Z,20.00
2017-09-08T13:01:18.943Z,20.10
2017-09-08T13:03:46.592Z,20.00
2017-09-08T13:06:14.336Z,19.90
2017-09-08T13:08:41.940Z,19.80
2017-09-08T13:11:09.549Z,19.70
2017-09-08T13:13:37.181Z,19.50
2017-09-08T13:16:04.804Z,19.40
2017-09-08T13:18:32.523Z,19.40
2017-09-08T13:21:00.167Z,19.30
2017-09-08T13:23:27.767Z,19.30
2017-09-08T13:25:55.391Z,19.40
2017-09-08T13:28:23.004Z,19.40
2017-09-08T13:30:50.638Z,19.50
2017-09-08T13:33:18.263Z,19.60
2017-09-08T13:35:46.640Z,19.70
2017-09-08T13:38:14.263Z,19.60
2017-09-08T13:40:41.866Z,19.50
2017-09-08T13:43:09.520Z,19.40
2017-09-08T13:45:37.168Z,19.40
2017-09-08T13:48:04.776Z,19.40
2017-09-08T13:50:32.408Z,19.30
2017-09-08T13:53:00.022Z,19.20
2017-09-08T13:55:27.667Z,19.10
2017-09-08T13:57:55.266Z,19.10
2017-09-08T14:00:22.876Z,19.00
2017-09-08T14:02:50.503Z,19.00
2017-09-08T14:05:18.120Z,19.00
2017-09-08T14:07:45.760Z,19.10
2017-09-08T14:10:13.360Z,19.10
2017-09-08T14:12:40.987Z,19.00
2017-09-08T14:15:08.639Z,19.00
2017-09-08T14:17:36.251Z,19.00
2017-09-08T14:20:03.893Z,19.00
2017-09-08T14:22:31.492Z,18.90
2017-09-08T14:24:59.859Z,18.90
2017-09-08T14:27:28.256Z,18.80
2017-09-08T14:29:55.861Z,18.80
2017-09-08T14:32:23.507Z,18.80
2017-09-08T14:34:51.113Z,18.80
2017-09-08T14:37:18.731Z,18.80
2017-09-08T14:39:46.377Z,18.80
2017-09-08T14:42:13.988Z,18.80
2017-09-08T14:44:41.629Z,18.80
2017-09-08T14:47:09.278Z,18.70
2017-09-08T14:49:36.924Z,18.70
2017-09-08T14:52:04.958Z,18.60
2017-09-08T14:54:32.611Z,18.70
2017-09-08T14:57:00.255Z,18.70
2017-09-08T14:59:27.873Z,18.70
2017-09-08T15:01:55.496Z,18.60
2017-09-08T15:04:23.133Z,18.60
2017-09-08T15:06:50.743Z,18.50
2017-09-08T15:09:18.401Z,18.50
2017-09-08T15:11:46.012Z,18.40
2017-09-08T15:14:13.644Z,18.40
2017-09-08T15:16:41.299Z,18.40
2017-09-08T15:19:08.910Z,18.40
2017-09-08T15:21:36.672Z,18.40
2017-09-08T15:24:04.300Z,18.40
2017-09-08T15:26:31.919Z,18.40
2017-09-08T15:28:59.581Z,18.30
2017-09-08T15:31:27.217Z,18.30
2017-09-08T15:33:54.900Z,18.30
2017-09-08T15:36:22.519Z,18.20
2017-09-08T15:38:50.151Z,18.20
2017-09-08T15:41:17.816Z,18.20
2017-09-08T15:43:45.452Z,18.30
2017-09-08T15:46:13.107Z,18.20
2017-09-08T15:48:40.744Z,18.20
2017-09-08T15:51:08.371Z,18.20
2017-09-08T15:53:36.012Z,18.20
2017-09-08T15:56:03.627Z,18.10
2017-09-08T15:58:31.313Z,18.10
2017-09-08T16:00:58.923Z,18.10
2017-09-08T16:03:26.528Z,18.10
2017-09-08T16:05:54.413Z,18.20
2017-09-08T16:08:22.108Z,18.20
2017-09-08T16:10:49.776Z,18.30
2017-09-08T16:13:17.406Z,18.20
2017-09-08T16:15:45.036Z,18.20
2017-09-08T16:18:12.955Z,18.10
2017-09-08T16:20:40.680Z,18.10
2017-09-08T16:23:08.333Z,18.10
2017-09-08T16:25:35.971Z,18.10
2017-09-08T16:28:03.605Z,18.10
2017-09-08T16:30:31.266Z,18.10
2017-09-08T16:32:58.888Z,18.10
2017-09-08T16:35:27.484Z,18.10
2017-09-08T16:37:55.128Z,18.10
2017-09-08T16:40:22.755Z,18.10
2017-09-08T16:42:51.195Z,18.00
2017-09-08T16:45:18.848Z,18.00
2017-09-08T16:47:46.603Z,18.00
2017-09-08T16:50:14.271Z,18.00
2017-09-08T16:52:41.993Z,18.00
2017-09-08T16:55:09.656Z,17.90
2017-09-08T16:57:37.281Z,18.00
2017-09-08T17:00:05.032Z,17.90
2017-09-08T17:02:32.668Z,17.80
2017-09-08T17:05:00.298Z,17.80
2017-09-08T17:07:27.956Z,17.80
2017-09-08T17:09:55.583Z,17.80
2017-09-08T17:12:23.261Z,17.80
2017-09-08T17:14:50.898Z,17.80
2017-09-08T17:17:18.536Z,17.80
2017-09-08T17:19:46.190Z,17.80
2017-09-08T17:22:13.832Z,17.70
2017-09-08T17:24:41.501Z,17.70
2017-09-08T17:27:09.904Z,17.70
2017-09-08T17:29:37.539Z,17.60
2017-09-08T17:32:05.189Z,17.60
2017-09-08T17:34:32.827Z,17.60
2017-09-08T17:37:00.529Z,17.60
2017-09-08T17:39:28.174Z,17.60
2017-09-08T17:41:55.804Z,17.60
2017-09-08T17:44:23.488Z,17.60
2017-09-08T17:46:51.131Z,17.50
2017-09-08T17:49:18.809Z,17.50
2017-09-08T17:51:46.444Z,17.50
2017-09-08T17:54:14.087Z,17.50
2017-09-08T17:56:41.756Z,17.40
2017-09-08T17:59:09.390Z,17.50
2017-09-08T18:01:37.079Z,17.50
2017-09-08T18:04:04.708Z,17.40
2017-09-08T18:06:32.339Z,17.30
2017-09-08T18:08:59.995Z,17.30
2017-09-08T18:11:27.648Z,17.20
2017-09-08T18:13:55.319Z,17.10
2017-09-08T18:16:22.962Z,17.10
2017-09-08T18:18:50.595Z,17.00
2017-09-08T18:21:18.265Z,16.90
2017-09-08T18:23:45.908Z,16.90
2017-09-08T18:26:13.576Z,16.90
2017-09-08T18:28:41.209Z,16.90
2017-09-08T18:31:08.847Z,16.80
2017-09-08T18:33:36.496Z,16.80
2017-09-08T18:36:04.153Z,16.80
2017-09-08T18:38:31.820Z,16.80
2017-09-08T18:40:59.457Z,16.80
2017-09-08T18:43:27.104Z,16.80
2017-09-08T18:45:54.755Z,16.70
2017-09-08T18:48:22.483Z,16.70
2017-09-08T18:50:50.242Z,16.60
2017-09-08T18:53:17.927Z,16.60
2017-09-08T18:55:45.580Z,16.60
2017-09-08T18:58:13.239Z,16.50
2017-09-08T19:00:40.933Z,16.50
2017-09-08T19:03:08.602Z,16.30
2017-09-08T19:05:36.236Z,16.30
2017-09-08T19:08:03.879Z,16.20
2017-09-08T19:10:31.550Z,16.20
2017-09-08T19:12:59.180Z,16.20
2017-09-08T19:15:26.871Z,16.10
2017-09-08T19:17:54.512Z,16.10
2017-09-08T19:20:22.141Z,16.10
2017-09-08T19:22:49.803Z,16.20
2017-09-08T19:25:17.428Z,16.20
2017-09-08T19:27:45.102Z,16.10
2017-09-08T19:30:12.731Z,16.20
2017-09-08T19:32:40.366Z,16.20
2017-09-08T19:35:09.040Z,16.20
2017-09-08T19:37:36.690Z,16.10
2017-09-08T19:40:04.355Z,16.10
2017-09-08T19:42:31.993Z,16.00
2017-09-08T19:44:59.623Z,16.00
2017-09-08T19:47:27.284Z,16.00
2017-09-08T19:49:54.936Z,16.10
2017-09-08T19:52:22.592Z,16.00
2017-09-08T19:54:50.256Z,15.90
2017-09-08T19:57:17.899Z,16.00
2017-09-08T19:59:45.560Z,16.00
2017-09-08T20:02:13.189Z,16.00
2017-09-08T20:04:40.868Z,16.00
2017-09-08T20:07:08.511Z,16.00
2017-09-08T20:09:36.164Z,15.90
2017-09-08T20:12:03.819Z,15.90
2017-09-08T20:14:31.465Z,15.80
2017-09-08T20:16:59.133Z,15.80
2017-09-08T20:19:26.774Z,15.80
2017-09-08T20:21:54.399Z,15.80
2017-09-08T20:24:22.065Z,15.90
2017-09-08T20:26:49.695Z,15.90
2017-09-08T20:29:17.360Z,15.80
2017-09-08T20:31:44.993Z,15.80
2017-09-08T20:34:12.616Z,15.80
2017-09-08T20:36:40.273Z,15.80
2017-09-08T20:39:07.899Z,15.70
2017-09-08T20:41:35.562Z,15.70
2017-09-08T20:44:03.407Z,15.70
2017-09-08T20:46:31.071Z,15.70
2017-09-08T20:48:58.719Z,15.60
2017-09-08T20:51:26.356Z,15.60
2017-09-08T20:53:54.217Z,15.60
2017-09-08T20:56:22.038Z,15.60
2017-09-08T20:58:49.695Z,15.60
2017-09-08T21:01:17.510Z,15.60
2017-09-08T21:03:45.360Z,15.60
2017-09-08T21:06:13.263Z,15.60
2017-09-08T21:08:41.097Z,15.50
2017-09-08T21:11:08.924Z,15.50
2017-09-08T21:13:36.620Z,15.50
2017-09-08T21:16:04.413Z,15.50
2017-09-08T21:18:32.144Z,15.40
2017-09-08T21:20:59.839Z,15.40
2017-09-08T21:23:27.470Z,15.50
2017-09-08T21:25:55.121Z,15.50
2017-09-08T21:28:22.752Z,15.50
2017-09-08T21:30:50.456Z,15.50
2017-09-08T21:33:18.157Z,15.50
2017-09-08T21:35:45.788Z,15.50
2017-09-08T21:38:13.956Z,15.50
2017-09-08T21:40:41.628Z,15.50
2017-09-08T21:43:09.292Z,15.50
2017-09-08T21:45:36.910Z,15.50
2017-09-08T21:48:04.591Z,15.40
2017-09-08T21:50:32.268Z,15.50
2017-09-08T21:53:00.655Z,15.60
2017-09-08T21:55:28.315Z,15.50
2017-09-08T21:57:56.085Z,15.50
2017-09-08T22:00:23.840Z,15.50
2017-09-08T22:02:51.532Z,15.60
2017-09-08T22:05:19.190Z,15.60
2017-09-08T22:07:46.859Z,15.60
2017-09-08T22:10:14.491Z,15.60
2017-09-08T22:12:42.116Z,15.50
2017-09-08T22:15:09.950Z,15.50
2017-09-08T22:17:37.571Z,15.60
2017-09-08T22:20:05.228Z,15.60
2017-09-08T22:22:32.865Z,15.60
2017-09-08T22:25:00.489Z,15.50
2017-09-08T22:27:28.145Z,15.50
2017-09-08T22:29:57.203Z,15.50
2017-09-08T22:32:24.903Z,15.50
2017-09-08T22:34:52.531Z,15.50
2017-09-08T22:37:20.160Z,15.50
2017-09-08T22:39:47.811Z,15.50
2017-09-08T22:42:15.438Z,15.50
2017-09-08T22:44:43.100Z,15.40
2017-09-08T22:47:10.731Z,15.40
2017-09-08T22:49:38.358Z,15.40
2017-09-08T22:52:06.011Z,15.30
2017-09-08T22:54:33.639Z,15.30
2017-09-08T22:57:01.304Z,15.30
2017-09-08T22:59:28.935Z,15.30
2017-09-08T23:01:56.564Z,15.20
2017-09-08T23:04:24.233Z,15.30
2017-09-08T23:06:51.872Z,15.10
2017-09-08T23:09:19.536Z,15.10
2017-09-08T23:11:47.171Z,15.10
2017-09-08T23:14:15.626Z,15.10
2017-09-08T23:16:43.289Z,15.10
2017-09-08T23:19:10.923Z,15.20
2017-09-08T23:21:38.579Z,15.20
2017-09-08T23:24:06.220Z,15.20
2017-09-08T23:26:33.856Z,15.20
2017-09-08T23:29:02.268Z,15.20
2017-09-08T23:31:29.887Z,15.10
2017-09-08T23:33:58.535Z,15.10
2017-09-08T23:36:27.240Z,15.10
2017-09-08T23:38:55.080Z,15.10
2017-09-08T23:41:23.433Z,15.10
2017-09-08T23:43:52.144Z,15.20
2017-09-08T23:46:19.895Z,15.20
2017-09-08T23:48:47.527Z,15.20
2017-09-08T23:51:15.159Z,15.20
2017-09-08T23:53:42.809Z,15.20
2017-09-08T23:56:10.441Z,15.20
2017-09-08T23:58:38.107Z,15.10
